Time;durP1;ratioP1;P1;durP2;ratioP2;P2;SDS_P1;SDS_P2;PMS_P1;PMS_P2;Temp;Humidity;BMP_temperature;BMP_pressure;BME280_temperature;BME280_humidity;BME280_pressure;Samples;Min_cycle;Max_cycle;Signal;HPM_P1;HPM_P2
2023/03/01 00:01:04;;;;;;;44.22;19.23;;;0.50;99.90;;;;;;5087642;28;20063;-51
2023/03/01 00:03:32;;;;;;;43.78;19.45;;;0.50;99.90;;;;;;5090680;28;20501;-54
2023/03/01 00:05:59;;;;;;;42.22;20.65;;;0.60;99.90;;;;;;5086177;28;20046;-53
2023/03/01 00:08:27;;;;;;;48.78;21.52;;;0.50;99.90;;;;;;5076079;28;20040;-54
2023/03/01 00:11:04;;;;;;;44.80;19.48;;;0.50;99.90;;;;;;5089436;28;20090;-54
2023/03/01 00:13:31;;;;;;;45.90;19.75;;;0.50;99.90;;;;;;5088108;28;20044;-52
2023/03/01 00:15:58;;;;;;;45.78;19.30;;;0.50;99.90;;;;;;5081243;28;20105;-53
2023/03/01 00:18:25;;;;;;;44.75;20.55;;;0.50;99.90;;;;;;5083674;28;20438;-53
2023/03/01 00:20:53;;;;;;;45.15;19.92;;;0.50;99.90;;;;;;5091375;28;20086;-52
2023/03/01 00:23:20;;;;;;;42.90;18.98;;;0.50;99.90;;;;;;5078154;28;20102;-53
2023/03/01 00:25:47;;;;;;;;;;;0.50;99.90;;;;;;5077192;28;20529;-55
2023/03/01 00:28:14;;;;;;;38.40;18.30;;;0.50;99.90;;;;;;5082331;28;20744;-53
2023/03/01 00:30:40;;;;;;;42.33;19.55;;;0.50;99.90;;;;;;5060211;28;20044;-52
2023/03/01 00:33:07;;;;;;;41.42;19.15;;;0.60;99.90;;;;;;5080338;28;20082;-51
2023/03/01 00:35:34;;;;;;;46.03;20.38;;;0.60;99.90;;;;;;5063057;28;20041;-53
2023/03/01 00:38:01;;;;;;;45.95;19.58;;;0.60;99.90;;;;;;5088642;28;20040;-53
2023/03/01 00:40:29;;;;;;;47.10;19.48;;;0.60;99.90;;;;;;5085285;28;20040;-55
2023/03/01 00:42:55;;;;;;;42.15;19.70;;;0.60;99.90;;;;;;5060181;28;20047;-51
2023/03/01 00:45:23;;;;;;;42.70;20.27;;;0.60;99.90;;;;;;5070998;28;20495;-50
2023/03/01 00:47:50;;;;;;;48.50;20.52;;;0.50;99.90;;;;;;5051908;28;20094;-52
2023/03/01 00:50:18;;;;;;;43.85;19.83;;;0.60;99.90;;;;;;5071230;28;20509;-54
2023/03/01 00:52:45;;;;;;;43.08;19.65;;;0.60;99.90;;;;;;5063002;28;20070;-54
2023/03/01 00:55:12;;;;;;;42.22;19.58;;;0.60;99.90;;;;;;5033177;28;20099;-53
2023/03/01 00:57:39;;;;;;;44.60;19.40;;;0.60;99.90;;;;;;5049905;28;20446;-51
2023/03/01 01:00:07;;;;;;;46.72;19.58;;;0.60;99.90;;;;;;5041126;28;20076;-52
2023/03/01 01:02:34;;;;;;;43.17;19.80;;;0.60;99.90;;;;;;5057767;28;20460;-53
2023/03/01 01:05:01;;;;;;;43.75;19.88;;;0.60;99.90;;;;;;5053110;28;20101;-53
2023/03/01 01:07:28;;;;;;;48.53;19.60;;;0.60;99.90;;;;;;5073340;22;20055;-52
2023/03/01 01:09:55;;;;;;;41.35;19.40;;;0.60;99.90;;;;;;5117661;28;20043;-49
2023/03/01 01:12:22;;;;;;;51.92;20.75;;;0.60;99.90;;;;;;5117267;28;20520;-49
2023/03/01 01:14:48;;;;;;;46.72;21.15;;;0.60;99.90;;;;;;5109956;28;20048;-49
2023/03/01 01:17:15;;;;;;;48.63;21.20;;;0.60;99.90;;;;;;5110471;28;20377;-49
2023/03/01 01:19:42;;;;;;;33.03;15.02;;;0.50;99.90;;;;;;5097672;28;20040;-49
2023/03/01 01:22:09;;;;;;;50.80;22.17;;;0.50;99.90;;;;;;5092371;28;20111;-50
2023/03/01 01:24:36;;;;;;;54.45;22.23;;;0.50;99.90;;;;;;5093251;28;20105;-49
2023/03/01 01:27:03;;;;;;;47.10;21.40;;;0.50;99.90;;;;;;5110268;28;20047;-48
2023/03/01 01:29:29;;;;;;;49.15;22.23;;;0.50;99.90;;;;;;5088056;28;20502;-50
2023/03/01 01:31:56;;;;;;;32.25;15.30;;;0.50;99.90;;;;;;5075570;28;20093;-49
2023/03/01 01:34:23;;;;;;;47.08;20.70;;;0.50;99.90;;;;;;5071977;28;20050;-49
2023/03/01 01:36:55;;;;;;;38.13;16.45;;;0.40;99.90;;;;;;5091135;28;20498;-50
2023/03/01 01:39:22;;;;;;;48.70;21.77;;;0.50;99.90;;;;;;5087283;28;20093;-49
2023/03/01 01:41:49;;;;;;;45.03;20.02;;;0.50;99.90;;;;;;5094550;28;20044;-49
2023/03/01 01:44:25;;;;;;;32.90;15.75;;;0.50;99.90;;;;;;5091199;28;20044;-49
2023/03/01 01:47:07;;;;;;;56.42;23.65;;;0.50;99.90;;;;;;5105897;28;20090;-49
2023/03/01 01:50:01;;;;;;;50.28;21.73;;;0.50;99.90;;;;;;5102688;28;20051;-50
2023/03/01 01:52:34;;;;;;;47.63;21.98;;;0.50;99.90;;;;;;5092834;28;20088;-50
2023/03/01 01:55:10;;;;;;;54.72;21.55;;;0.50;99.90;;;;;;5096715;28;20520;-48
2023/03/01 01:57:44;;;;;;;53.30;21.10;;;0.50;99.90;;;;;;5092969;28;20036;-49
2023/03/01 02:00:18;;;;;;;48.22;22.17;;;0.50;99.90;;;;;;5091026;28;20494;-49
2023/03/01 02:02:48;;;;;;;51.65;23.17;;;0.50;99.90;;;;;;5090732;28;20468;-48
2023/03/01 02:05:49;;;;;;;54.28;22.35;;;0.40;99.90;;;;;;5108425;28;20509;-50
2023/03/01 02:08:26;;;;;;;51.95;23.67;;;0.40;99.90;;;;;;5100176;28;20501;-51
2023/03/01 02:10:56;;;;;;;49.13;21.67;;;0.40;99.90;;;;;;5113600;28;20082;-51
2023/03/01 02:13:23;;;;;;;48.00;21.85;;;0.40;99.90;;;;;;5107530;28;20051;-49
2023/03/01 02:15:50;;;;;;;49.50;21.92;;;0.40;99.90;;;;;;5104929;28;20036;-49
2023/03/01 02:18:19;;;;;;;56.17;24.17;;;0.40;99.90;;;;;;5075265;28;20040;-50
2023/03/01 02:20:58;;;;;;;56.20;23.45;;;0.40;99.90;;;;;;5094276;28;20040;-49
2023/03/01 02:23:25;;;;;;;51.92;22.02;;;0.40;99.90;;;;;;5095069;28;20482;-49
2023/03/01 02:26:00;;;;;;;52.03;22.25;;;0.50;99.90;;;;;;5092498;28;20043;-49
2023/03/01 02:28:32;;;;;;;51.45;22.30;;;0.50;99.90;;;;;;5095003;28;20056;-53
2023/03/01 02:33:47;;;;;;;56.58;24.13;;;0.50;99.90;;;;;;5113638;28;20766;-50
2023/03/01 02:36:19;;;;;;;53.10;23.25;;;0.50;99.90;;;;;;5113670;28;20043;-50
2023/03/01 02:38:48;;;;;;;51.72;23.15;;;0.50;99.90;;;;;;5112467;28;20092;-52
2023/03/01 02:41:17;;;;;;;51.90;23.00;;;0.50;99.90;;;;;;5105780;28;20044;-49
2023/03/01 02:43:44;;;;;;;51.10;23.60;;;0.50;99.90;;;;;;5113049;28;20142;-51
2023/03/01 02:46:20;;;;;;;59.33;23.40;;;0.50;99.90;;;;;;5112545;28;20039;-50
2023/03/01 02:48:56;;;;;;;59.10;23.67;;;0.50;99.90;;;;;;5085772;28;20048;-49
2023/03/01 02:51:42;;;;;;;61.10;24.92;;;0.40;99.90;;;;;;5100587;28;20044;-50
2023/03/01 02:54:32;;;;;;;60.75;24.90;;;0.50;99.90;;;;;;5092189;28;20048;-49
2023/03/01 02:56:59;;;;;;;55.85;23.45;;;0.40;99.90;;;;;;5108809;28;20036;-49
2023/03/01 02:59:33;;;;;;;54.35;24.10;;;0.40;99.90;;;;;;5103353;28;20043;-49
2023/03/01 03:02:01;;;;;;;58.50;24.85;;;0.40;99.90;;;;;;5085572;28;20498;-49
2023/03/01 03:04:27;;;;;;;60.95;26.10;;;0.50;99.90;;;;;;5113567;28;20047;-50
2023/03/01 03:06:54;;;;;;;57.50;24.15;;;0.50;99.90;;;;;;5094992;28;20039;-49
2023/03/01 03:09:21;;;;;;;42.50;16.95;;;0.40;99.90;;;;;;5093805;28;20052;-50
2023/03/01 03:11:48;;;;;;;58.58;25.92;;;0.50;99.90;;;;;;5105556;28;20041;-50
2023/03/01 03:14:16;;;;;;;61.95;25.90;;;0.50;99.90;;;;;;5113212;28;20447;-48
2023/03/01 03:16:48;;;;;;;59.80;24.85;;;0.40;99.90;;;;;;5090714;28;20040;-50
2023/03/01 03:19:16;;;;;;;59.60;25.67;;;0.40;99.90;;;;;;5074251;28;20046;-50
2023/03/01 03:21:43;;;;;;;55.85;24.02;;;0.40;99.90;;;;;;5112036;28;20539;-48
2023/03/01 03:24:10;;;;;;;59.42;24.95;;;0.40;99.90;;;;;;5112470;28;20043;-49
2023/03/01 03:26:37;;;;;;;54.97;24.85;;;0.40;99.90;;;;;;5104674;28;20035;-49
2023/03/01 03:29:04;;;;;;;58.97;25.60;;;0.50;99.90;;;;;;5112832;28;20047;-48
2023/03/01 03:31:31;;;;;;;58.88;25.55;;;0.50;99.90;;;;;;5111615;28;20040;-49
2023/03/01 03:33:58;;;;;;;44.00;18.80;;;0.40;99.90;;;;;;5112621;28;20254;-49
2023/03/01 03:36:25;;;;;;;;;;;0.40;99.90;;;;;;5113196;28;20050;-50
2023/03/01 03:38:52;;;;;;;59.67;24.73;;;0.40;99.90;;;;;;5111195;28;19920;-49
2023/03/01 03:41:19;;;;;;;65.93;24.92;;;0.50;99.90;;;;;;5104958;28;20035;-49
2023/03/01 03:43:46;;;;;;;65.70;26.50;;;0.50;99.90;;;;;;5113104;28;20061;-49
2023/03/01 03:46:13;;;;;;;62.00;27.48;;;0.50;99.90;;;;;;5108739;28;20040;-49
2023/03/01 03:48:43;;;;;;;68.43;27.38;;;0.50;99.90;;;;;;5096842;28;20060;-49
2023/03/01 03:51:15;;;;;;;65.95;27.20;;;0.40;99.90;;;;;;5091931;28;20050;-49
2023/03/01 03:53:42;;;;;;;57.40;25.42;;;0.40;99.90;;;;;;5098238;28;20043;-49
2023/03/01 03:56:10;;;;;;;69.55;27.63;;;0.50;99.90;;;;;;5104132;28;20494;-49
2023/03/01 03:58:37;;;;;;;63.85;28.73;;;0.40;99.90;;;;;;5112087;28;20409;-49
2023/03/01 04:01:04;;;;;;;68.80;28.80;;;0.40;99.90;;;;;;5111754;28;20036;-51
2023/03/01 04:03:32;;;;;;;70.82;29.98;;;0.40;99.90;;;;;;5097784;28;20105;-49
2023/03/01 04:05:59;;;;;;;64.97;28.13;;;0.40;99.90;;;;;;5094425;28;20056;-49
2023/03/01 04:08:27;;;;;;;63.10;27.75;;;0.50;99.90;;;;;;5095381;28;20047;-50
2023/03/01 04:11:25;;;;;;;60.78;27.40;;;0.50;99.90;;;;;;5091540;28;20047;-51
2023/03/01 04:13:47;;;;;;;61.25;27.20;;;0.50;99.90;;;;;;5091770;28;20451;-49
2023/03/01 04:16:14;;;;;;;70.93;28.08;;;0.50;99.90;;;;;;5099418;28;20455;-49
2023/03/01 04:18:41;;;;;;;66.93;28.17;;;0.50;99.90;;;;;;5103255;28;20035;-49
2023/03/01 04:21:07;;;;;;;67.35;28.42;;;0.40;99.90;;;;;;5111938;28;20074;-51
2023/03/01 04:23:34;;;;;;;45.30;20.10;;;0.40;99.90;;;;;;5104666;28;20097;-50
2023/03/01 04:26:01;;;;;;;;;;;0.50;99.90;;;;;;5091943;28;20040;-50
2023/03/01 04:28:40;;;;;;;68.53;27.50;;;0.50;99.90;;;;;;5090247;28;19969;-50
2023/03/01 04:31:13;;;;;;;61.00;27.23;;;0.50;99.90;;;;;;5108271;28;20085;-49
2023/03/01 04:33:45;;;;;;;65.22;27.80;;;0.50;99.90;;;;;;5095895;28;20032;-49
2023/03/01 04:36:14;;;;;;;66.28;28.40;;;0.50;99.90;;;;;;5101259;28;20550;-48
2023/03/01 04:38:42;;;;;;;65.68;27.63;;;0.40;99.90;;;;;;5108342;28;20039;-49
2023/03/01 04:41:10;;;;;;;;;;;0.40;99.90;;;;;;5093945;28;20047;-49
2023/03/01 04:43:37;;;;;;;69.68;29.27;;;0.50;99.90;;;;;;5111837;28;19938;-49
2023/03/01 04:46:10;;;;;;;71.47;28.95;;;0.50;99.90;;;;;;5108245;28;20116;-48
2023/03/01 04:48:41;;;;;;;67.25;29.65;;;0.50;99.90;;;;;;5097764;28;20051;-49
2023/03/01 04:51:08;;;;;;;72.47;29.85;;;0.50;99.90;;;;;;5097362;28;20585;-50
2023/03/01 04:53:38;;;;;;;69.78;29.73;;;0.40;99.90;;;;;;5110207;28;20077;-49
2023/03/01 04:56:06;;;;;;;74.65;32.08;;;0.40;99.90;;;;;;5097308;28;20040;-50
2023/03/01 04:58:32;;;;;;;65.30;29.23;;;0.40;99.90;;;;;;5100902;28;20474;-49
2023/03/01 05:00:59;;;;;;;69.25;30.02;;;0.50;99.90;;;;;;5095584;28;20090;-50
2023/03/01 05:03:26;;;;;;;71.35;28.98;;;0.50;99.90;;;;;;5109844;28;20444;-49
2023/03/01 05:05:53;;;;;;;73.05;30.67;;;0.50;99.90;;;;;;5110791;28;20043;-51
2023/03/01 05:08:20;;;;;;;77.43;31.65;;;0.50;99.90;;;;;;5111301;28;20624;-49
2023/03/01 05:10:52;;;;;;;;;;;0.50;99.90;;;;;;5110920;28;20528;-49
2023/03/01 05:13:20;;;;;;;64.15;27.83;;;0.50;99.90;;;;;;5099584;28;19924;-49
2023/03/01 05:15:53;;;;;;;69.57;28.20;;;0.50;99.90;;;;;;5096859;28;20084;-51
2023/03/01 05:18:20;;;;;;;72.13;29.48;;;0.50;99.90;;;;;;5109979;28;20086;-49
2023/03/01 05:20:47;;;;;;;68.38;29.10;;;0.50;99.90;;;;;;5100680;28;20051;-50
2023/03/01 05:23:13;;;;;;;75.20;29.50;;;0.50;99.90;;;;;;5102139;28;20036;-49
2023/03/01 05:25:40;;;;;;;65.03;28.65;;;0.50;99.90;;;;;;5098719;28;20048;-49
2023/03/01 05:28:11;;;;;;;54.78;22.48;;;0.50;99.90;;;;;;5106509;28;20105;-50
2023/03/01 05:30:38;;;;;;;67.30;29.08;;;0.50;99.90;;;;;;5096333;28;20035;-53
2023/03/01 05:33:12;;;;;;;70.90;29.35;;;0.50;99.90;;;;;;5109509;28;20052;-49
2023/03/01 05:35:41;;;;;;;76.22;29.80;;;0.50;99.90;;;;;;5101564;28;20048;-51
2023/03/01 05:38:12;;;;;;;66.43;28.10;;;0.50;99.90;;;;;;5109306;28;20039;-49
2023/03/01 05:40:40;;;;;;;67.68;29.13;;;0.50;99.90;;;;;;5107385;28;20127;-49
2023/03/01 05:43:07;;;;;;;72.22;29.52;;;0.50;99.90;;;;;;5097350;28;20101;-49
2023/03/01 05:45:36;;;;;;;50.42;22.38;;;0.50;99.90;;;;;;5093168;28;20378;-49
2023/03/01 05:48:04;;;;;;;62.63;27.30;;;0.60;99.90;;;;;;5113736;28;20051;-49
2023/03/01 05:50:37;;;;;;;65.00;28.45;;;0.60;99.90;;;;;;5113445;28;20096;-51
2023/03/01 05:53:08;;;;;;;69.70;28.42;;;0.60;99.90;;;;;;5062985;28;20040;-51
2023/03/01 05:55:36;;;;;;;62.85;28.08;;;0.60;99.90;;;;;;5114954;28;20075;-50
2023/03/01 05:58:05;;;;;;;61.58;27.45;;;0.60;99.90;;;;;;5092993;28;20047;-49
2023/03/01 06:00:33;;;;;;;70.25;31.25;;;0.60;99.90;;;;;;5095840;28;20044;-49
2023/03/01 06:03:00;;;;;;;63.50;27.90;;;0.60;99.90;;;;;;5095177;28;20070;-53
2023/03/01 06:05:28;;;;;;;67.30;29.30;;;0.60;99.90;;;;;;5091928;28;20052;-53
2023/03/01 06:07:58;;;;;;;64.25;29.02;;;0.60;99.90;;;;;;5095655;28;20123;-50
2023/03/01 06:10:25;;;;;;;69.75;28.95;;;0.60;99.90;;;;;;5107261;28;20039;-50
2023/03/01 06:12:52;;;;;;;65.05;28.42;;;0.60;99.90;;;;;;5111933;28;20505;-49
2023/03/01 06:15:18;;;;;;;62.35;28.20;;;0.60;99.90;;;;;;5103624;28;20048;-49
2023/03/01 06:18:06;;;;;;;67.05;27.48;;;0.60;99.90;;;;;;5092979;28;20474;-51
2023/03/01 06:20:32;;;;;;;64.70;26.75;;;0.60;99.90;;;;;;5113359;28;20100;-49
2023/03/01 06:22:59;;;;;;;66.20;27.83;;;0.60;99.90;;;;;;5103190;28;20040;-50
2023/03/01 06:25:27;;;;;;;70.75;29.55;;;0.60;99.90;;;;;;5094130;28;20044;-49
2023/03/01 06:27:53;;;;;;;;;;;0.60;99.90;;;;;;5093619;28;20105;-50
2023/03/01 06:30:22;;;;;;;61.03;26.77;;;0.70;99.90;;;;;;5093673;28;20342;-50
2023/03/01 06:32:49;;;;;;;61.92;26.70;;;0.70;99.90;;;;;;5092843;28;20036;-50
2023/03/01 06:35:17;;;;;;;;;;;0.80;99.90;;;;;;5094255;28;20059;-49
2023/03/01 06:37:46;;;;;;;59.42;26.88;;;0.80;99.90;;;;;;5104504;28;19924;-51
2023/03/01 06:40:13;;;;;;;62.90;27.98;;;0.80;99.90;;;;;;5105379;28;20059;-50
2023/03/01 06:42:43;;;;;;;64.40;28.25;;;0.80;99.90;;;;;;5114015;28;20529;-51
2023/03/01 06:45:10;;;;;;;67.95;27.83;;;0.80;99.90;;;;;;5102345;28;20173;-48
2023/03/01 06:47:37;;;;;;;60.97;26.98;;;0.90;99.90;;;;;;5114014;28;20054;-49
2023/03/01 06:50:04;;;;;;;62.85;27.80;;;0.90;99.90;;;;;;5112684;28;20084;-49
2023/03/01 06:52:31;;;;;;;62.63;28.35;;;0.80;99.90;;;;;;5113927;28;20039;-51
2023/03/01 06:54:58;;;;;;;64.50;28.23;;;0.80;99.90;;;;;;5111595;28;20036;-49
2023/03/01 06:57:25;;;;;;;67.30;27.67;;;0.80;99.90;;;;;;5105761;28;20375;-49
2023/03/01 06:59:52;;;;;;;66.97;29.02;;;0.80;99.90;;;;;;5112339;28;20048;-52
2023/03/01 07:02:18;;;;;;;64.32;29.10;;;0.80;99.90;;;;;;5093471;28;20474;-49
2023/03/01 07:04:45;;;;;;;58.95;27.10;;;0.80;99.90;;;;;;5112992;28;20048;-48
2023/03/01 07:07:12;;;;;;;66.35;28.27;;;0.80;99.90;;;;;;5113033;28;20490;-51
2023/03/01 07:09:39;;;;;;;49.10;20.42;;;0.80;99.90;;;;;;5130452;22;20035;-50
2023/03/01 07:12:06;;;;;;;63.35;28.00;;;0.80;99.90;;;;;;5126622;27;20534;-48
2023/03/01 07:14:33;;;;;;;61.70;27.45;;;0.90;99.90;;;;;;5123795;27;20104;-49
2023/03/01 07:16:59;;;;;;;57.92;26.30;;;0.90;99.90;;;;;;5123072;27;20039;-50
2023/03/01 07:19:26;;;;;;;46.42;19.02;;;0.90;99.90;;;;;;5120214;27;20089;-51
2023/03/01 07:21:55;;;;;;;61.65;27.30;;;0.90;99.90;;;;;;5111807;28;20552;-51
2023/03/01 07:24:22;;;;;;;60.00;26.60;;;0.90;99.90;;;;;;5112755;28;20113;-53
2023/03/01 07:26:50;;;;;;;56.63;27.02;;;0.90;99.90;;;;;;5112901;27;20075;-50
2023/03/01 07:29:17;;;;;;;60.22;25.13;;;0.90;99.90;;;;;;5100141;27;20067;-51
2023/03/01 07:31:44;;;;;;;62.55;27.27;;;0.90;99.90;;;;;;5101666;27;20043;-52
2023/03/01 07:34:11;;;;;;;;;;;0.90;99.90;;;;;;5133710;27;20037;-52
2023/03/01 07:36:39;;;;;;;58.97;25.40;;;0.90;99.90;;;;;;5133500;27;19958;-50
2023/03/01 07:39:06;;;;;;;56.38;24.98;;;0.90;99.90;;;;;;5114801;27;20479;-53
2023/03/01 07:41:33;;;;;;;64.25;26.80;;;0.90;99.90;;;;;;5106577;28;20382;-50
2023/03/01 07:44:00;;;;;;;46.30;21.30;;;1.00;99.90;;;;;;5112912;28;20390;-54
2023/03/01 07:46:26;;;;;;;52.45;25.83;;;1.00;99.90;;;;;;5106607;28;20109;-54
2023/03/01 07:48:53;;;;;;;53.80;23.67;;;1.10;99.90;;;;;;5095202;28;20048;-51
2023/03/01 07:51:20;;;;;;;34.40;15.95;;;1.00;99.90;;;;;;5112262;28;20097;-53
2023/03/01 07:53:48;;;;;;;55.08;23.90;;;1.10;99.90;;;;;;5112745;28;20493;-51
2023/03/01 07:56:17;;;;;;;48.90;22.75;;;1.00;99.90;;;;;;5108982;27;20048;-52
2023/03/01 07:58:45;;;;;;;52.55;23.33;;;1.00;99.90;;;;;;5107380;28;20043;-51
2023/03/01 08:01:14;;;;;;;61.20;23.95;;;1.10;99.90;;;;;;5106474;28;20047;-54
2023/03/01 08:03:43;;;;;;;51.88;24.35;;;1.10;99.90;;;;;;5103521;28;20046;-52
2023/03/01 08:06:11;;;;;;;50.80;23.02;;;1.10;99.90;;;;;;5110791;28;20113;-52
2023/03/01 08:08:38;;;;;;;50.90;23.30;;;1.20;99.90;;;;;;5095189;27;20044;-52
2023/03/01 08:11:07;;;;;;;46.92;23.23;;;1.20;99.90;;;;;;5110101;28;20100;-53
2023/03/01 08:13:34;;;;;;;50.28;22.92;;;1.20;99.90;;;;;;5110382;28;20044;-51
2023/03/01 08:16:06;;;;;;;49.67;22.20;;;1.30;99.90;;;;;;5112254;28;20556;-54
2023/03/01 08:18:33;;;;;;;50.33;22.20;;;1.30;99.90;;;;;;5111418;27;20573;-52
2023/03/01 08:21:12;;;;;;;51.95;22.40;;;1.30;99.90;;;;;;5103531;28;20092;-51
2023/03/01 08:23:40;;;;;;;50.83;22.42;;;1.30;99.90;;;;;;5111397;28;20365;-53
2023/03/01 08:26:12;;;;;;;48.47;23.05;;;1.30;99.90;;;;;;5092835;28;20048;-51
2023/03/01 08:28:40;;;;;;;46.72;22.15;;;1.40;99.90;;;;;;5093692;28;20172;-49
2023/03/01 08:31:19;;;;;;;46.22;22.55;;;1.50;99.90;;;;;;5092813;28;20094;-51
2023/03/01 08:33:50;;;;;;;50.88;22.52;;;1.60;99.90;;;;;;5089321;28;20494;-51
2023/03/01 08:36:18;;;;;;;51.53;22.90;;;1.60;99.90;;;;;;5091721;28;20491;-51
2023/03/01 08:38:45;;;;;;;46.25;20.95;;;1.70;99.90;;;;;;5099153;28;20032;-53
2023/03/01 08:41:12;;;;;;;;;;;1.70;99.90;;;;;;5103545;28;20509;-50
2023/03/01 08:43:39;;;;;;;47.83;22.45;;;1.70;99.90;;;;;;5112072;28;20336;-51
2023/03/01 08:46:05;;;;;;;32.05;15.52;;;1.80;99.90;;;;;;5095230;28;20040;-50
2023/03/01 08:48:32;;;;;;;52.58;21.88;;;1.80;99.90;;;;;;5104948;28;20047;-51
2023/03/01 08:51:14;;;;;;;50.55;20.92;;;1.80;99.90;;;;;;5111391;28;20051;-52
2023/03/01 08:53:42;;;;;;;50.22;21.60;;;1.90;99.90;;;;;;5106323;28;20454;-49
2023/03/01 08:56:09;;;;;;;45.35;20.92;;;1.90;99.90;;;;;;5103023;28;20161;-53
2023/03/01 08:58:37;;;;;;;42.08;21.42;;;1.90;99.90;;;;;;5111470;28;20389;-52
2023/03/01 09:01:08;;;;;;;52.92;21.48;;;2.00;99.90;;;;;;5108169;28;20043;-51
2023/03/01 09:03:34;;;;;;;48.95;21.63;;;2.00;99.90;;;;;;5106096;28;20160;-51
2023/03/01 09:06:02;;;;;;;38.75;17.20;;;2.00;99.90;;;;;;5110418;28;20497;-54
2023/03/01 09:08:29;;;;;;;51.00;21.50;;;2.10;99.90;;;;;;5110765;28;20062;-52
2023/03/01 09:10:56;;;;;;;47.75;21.63;;;2.20;99.90;;;;;;5103194;28;20047;-54
2023/03/01 09:13:27;;;;;;;51.08;21.92;;;2.30;99.90;;;;;;5116722;28;20043;-50
2023/03/01 09:15:53;;;;;;;46.63;22.00;;;2.30;99.90;;;;;;5132146;28;20378;-52
2023/03/01 09:18:20;;;;;;;55.05;22.33;;;2.30;99.90;;;;;;5099329;28;20036;-52
2023/03/01 09:20:47;;;;;;;43.55;20.98;;;2.40;99.90;;;;;;5094442;28;20048;-50
2023/03/01 09:23:13;;;;;;;47.08;21.52;;;2.50;99.90;;;;;;5095079;28;20468;-53
2023/03/01 09:25:40;;;;;;;47.28;22.10;;;2.50;99.90;;;;;;5115397;27;20084;-53
2023/03/01 09:28:07;;;;;;;30.95;14.90;;;2.60;99.90;;;;;;5106943;28;20065;-51
2023/03/01 09:30:41;;;;;;;46.28;21.67;;;2.80;99.90;;;;;;5115386;28;20118;-52
2023/03/01 09:33:14;;;;;;;47.05;22.40;;;2.80;99.90;;;;;;5112329;27;20043;-51
2023/03/01 09:35:45;;;;;;;50.60;23.23;;;2.80;99.90;;;;;;5095175;28;20036;-53
2023/03/01 09:38:13;;;;;;;45.53;21.45;;;2.90;99.90;;;;;;5093830;28;20097;-52
2023/03/01 09:40:46;;;;;;;44.30;22.08;;;3.00;99.90;;;;;;5076685;28;20059;-51
2023/03/01 09:43:25;;;;;;;47.40;21.90;;;3.00;99.90;;;;;;5111693;27;20036;-50
2023/03/01 09:45:55;;;;;;;51.72;21.15;;;3.20;99.90;;;;;;5128579;27;20558;-52
2023/03/01 09:48:26;;;;;;;49.67;21.35;;;3.30;99.90;;;;;;5131994;27;20447;-52
2023/03/01 09:50:53;;;;;;;45.55;21.52;;;3.50;99.90;;;;;;5100019;27;20040;-50
2023/03/01 09:53:31;;;;;;;48.65;22.58;;;3.60;99.90;;;;;;5093300;28;20081;-53
2023/03/01 09:56:14;;;;;;;54.78;22.35;;;3.70;99.90;;;;;;5093750;28;20094;-51
2023/03/01 09:59:09;;;;;;;51.35;22.23;;;3.70;99.90;;;;;;5096676;27;20709;-52
2023/03/01 10:01:53;;;;;;;49.35;22.25;;;3.70;99.90;;;;;;5102728;28;20040;-52
2023/03/01 10:04:37;;;;;;;51.38;22.35;;;3.90;99.90;;;;;;5094505;27;20040;-52
2023/03/01 10:07:10;;;;;;;45.20;21.27;;;3.90;99.90;;;;;;5102336;28;20070;-53
2023/03/01 10:09:39;;;;;;;47.90;21.15;;;3.90;99.90;;;;;;5092469;28;20044;-52
2023/03/01 10:12:16;;;;;;;46.00;20.35;;;4.00;99.90;;;;;;5098828;27;20089;-51
2023/03/01 10:14:55;;;;;;;35.53;16.27;;;4.10;99.90;;;;;;5101207;28;20039;-51
2023/03/01 10:17:36;;;;;;;48.72;22.10;;;4.30;99.90;;;;;;5106646;28;20425;-51
2023/03/01 10:20:20;;;;;;;42.33;21.02;;;4.40;99.90;;;;;;5103928;27;20048;-54
2023/03/01 10:22:52;;;;;;;43.50;20.60;;;4.50;99.90;;;;;;5094018;28;20036;-51
2023/03/01 10:25:32;;;;;;;39.85;19.98;;;4.70;99.90;;;;;;5092785;28;20044;-51
2023/03/01 10:28:10;;;;;;;48.13;20.08;;;4.70;99.90;;;;;;5094978;27;20563;-50
2023/03/01 10:30:41;;;;;;;56.05;20.95;;;4.90;99.90;;;;;;5108234;28;20120;-51
2023/03/01 10:33:20;;;;;;;45.55;19.92;;;4.80;99.90;;;;;;5112453;28;20043;-52
2023/03/01 10:35:48;;;;;;;41.80;19.58;;;4.90;99.90;;;;;;5114223;28;20043;-52
2023/03/01 10:38:16;;;;;;;38.97;19.73;;;4.80;99.90;;;;;;5110385;28;20040;-51
2023/03/01 10:41:04;;;;;;;41.10;19.08;;;4.70;99.90;;;;;;5086980;28;20489;-51
2023/03/01 10:43:47;;;;;;;40.17;19.25;;;4.70;99.90;;;;;;5114230;28;20071;-50
2023/03/01 10:46:34;;;;;;;39.28;18.40;;;4.60;99.90;;;;;;5090924;28;20040;-52
2023/03/01 10:49:18;;;;;;;40.60;19.05;;;4.50;99.90;;;;;;5092554;28;20043;-51
2023/03/01 10:51:48;;;;;;;39.47;19.23;;;4.70;99.90;;;;;;5093304;28;20516;-52
2023/03/01 10:54:18;;;;;;;42.42;19.35;;;4.90;99.90;;;;;;5098070;27;20309;-52
2023/03/01 10:56:55;;;;;;;36.50;19.05;;;5.00;99.90;;;;;;5105242;28;20043;-52
2023/03/01 10:59:29;;;;;;;44.30;21.63;;;5.00;99.90;;;;;;5113097;28;20036;-51
2023/03/01 11:02:10;;;;;;;45.15;19.33;;;5.10;99.90;;;;;;5113717;28;20168;-50
2023/03/01 11:05:15;;;;;;;37.72;19.80;;;5.00;99.90;;;;;;5097584;27;20068;-52
2023/03/01 11:07:55;;;;;;;51.10;21.38;;;4.80;99.90;;;;;;5108775;28;20055;-52
2023/03/01 11:10:34;;;;;;;41.47;19.50;;;4.70;99.90;;;;;;5112741;28;20048;-50
2023/03/01 11:13:06;;;;;;;41.45;20.35;;;4.70;99.90;;;;;;5112059;28;20055;-51
2023/03/01 11:15:34;;;;;;;38.08;18.27;;;4.70;99.90;;;;;;5121712;27;20035;-51
2023/03/01 11:18:00;;;;;;;;;;;4.80;99.90;;;;;;5104030;27;20291;-50
2023/03/01 11:20:39;;;;;;;;;;;4.90;99.90;;;;;;5089983;28;19920;-53
2023/03/01 11:23:10;;;;;;;;;;;5.10;99.90;;;;;;5113662;28;20447;-51
2023/03/01 11:25:39;;;;;;;;;;;5.30;99.90;;;;;;5113138;27;19920;-50
2023/03/01 11:28:06;;;;;;;;;;;5.50;99.90;;;;;;5104848;28;19924;-50
2023/03/01 11:30:52;;;;;;;;;;;5.80;99.90;;;;;;5113550;28;19920;-55
2023/03/01 11:33:37;;;;;;;;;;;5.80;99.90;;;;;;5098264;27;19920;-52
2023/03/01 11:36:22;;;;;;;;;;;5.90;99.90;;;;;;5092976;28;19974;-53
2023/03/01 11:38:49;;;;;;;;;;;5.70;99.90;;;;;;5092441;28;19920;-51
2023/03/01 11:41:29;;;;;;;;;;;5.80;99.90;;;;;;5096775;28;20013;-53
2023/03/01 11:44:08;;;;;;;;;;;5.80;99.90;;;;;;5104632;28;19959;-53
2023/03/01 11:46:46;;;;;;;;;;;5.80;99.90;;;;;;5113280;28;19920;-54
2023/03/01 11:49:32;;;;;;;;;;;5.60;99.90;;;;;;5109112;28;19927;-50
2023/03/01 11:52:19;;;;;;;;;;;5.00;99.90;;;;;;5098099;27;19920;-52
2023/03/01 11:55:04;;;;;;;;;;;4.80;99.90;;;;;;5092380;28;19962;-53
2023/03/01 11:58:04;;;;;;;;;;;4.50;99.90;;;;;;5092480;28;19950;-51
2023/03/01 12:00:33;;;;;;;;;;;4.30;99.90;;;;;;5077869;28;19946;-52
2023/03/01 12:03:18;;;;;;;;;;;4.00;99.90;;;;;;5104512;28;20347;-51
2023/03/01 12:05:50;;;;;;;;;;;3.90;99.90;;;;;;5095047;27;19955;-52
2023/03/01 12:08:20;;;;;;;;;;;3.80;99.90;;;;;;5091693;28;19920;-54
2023/03/01 12:11:07;;;;;;;;;;;3.80;99.90;;;;;;5092333;28;19927;-54
2023/03/01 12:13:52;;;;;;;;;;;3.80;99.90;;;;;;5095588;27;19977;-50
2023/03/01 12:16:28;;;;;;;;;;;4.00;99.90;;;;;;5100733;28;19927;-50
2023/03/01 12:19:11;;;;;;;;;;;4.10;99.90;;;;;;5092000;28;20281;-50
2023/03/01 12:21:38;;;;;;;;;;;4.10;99.90;;;;;;5092767;28;19920;-50
2023/03/01 12:24:23;;;;;;;;;;;4.10;99.90;;;;;;5092732;28;20328;-53
2023/03/01 12:27:02;;;;;;;;;;;4.10;99.90;;;;;;5091972;28;19959;-54
2023/03/01 12:29:40;;;;;;;;;;;4.10;99.90;;;;;;5091604;28;19954;-50
2023/03/01 12:32:07;;;;;;;;;;;4.10;99.90;;;;;;5102846;28;20428;-53
2023/03/01 12:34:34;;;;;;;;;;;4.00;99.90;;;;;;5105439;27;19920;-51
2023/03/01 12:37:13;;;;;;;;;;;4.00;99.90;;;;;;5092004;28;19924;-50
2023/03/01 12:39:39;;;;;;;;;;;4.10;99.90;;;;;;5091236;28;19982;-51
2023/03/01 12:42:15;;;;;;;;;;;4.10;99.90;;;;;;5092018;28;19920;-54
2023/03/01 12:44:50;;;;;;;;;;;4.10;99.90;;;;;;5107017;27;19969;-50
2023/03/01 12:47:26;;;;;;;;;;;4.20;99.90;;;;;;5104028;28;19919;-50
2023/03/01 12:49:59;;;;;;;;;;;4.30;99.90;;;;;;5110175;28;19927;-53
2023/03/01 12:52:48;;;;;;;;;;;4.40;99.90;;;;;;5111972;28;19919;-51
2023/03/01 12:55:34;;;;;;;;;;;4.40;99.90;;;;;;5093146;28;20409;-50
2023/03/01 12:58:11;;;;;;;;;;;4.40;99.90;;;;;;5112137;28;20092;-50
2023/03/01 13:00:40;;;;;;;;;;;4.50;99.90;;;;;;5111624;28;19937;-50
2023/03/01 13:03:26;;;;;;;;;;;4.50;99.90;;;;;;5103954;28;20018;-50
2023/03/01 13:06:07;;;;;;;;;;;4.50;99.90;;;;;;5094036;28;19959;-51
2023/03/01 13:11:43;;;;;;;;;;;4.40;99.90;;;;;;5047986;28;20024;-49
2023/03/01 13:14:22;;;;;;;;;;;4.30;99.90;;;;;;5048211;28;19967;-49
2023/03/01 13:16:50;;;;;;;;;;;4.30;99.90;;;;;;5051184;28;20019;-49
2023/03/01 13:19:20;;;;;;;;;;;4.20;99.90;;;;;;5046270;28;20400;-49
2023/03/01 13:21:49;;;;;;;;;;;4.20;99.90;;;;;;5029711;28;19980;-49